Sat, 17 Apr 2021 11:52:08 UTC

Information for RPM dash-0.5.5.1-3.fc12.ppc64.rpm

ID1388437
Namedash
Version0.5.5.1
Release3.fc12
Epoch
Archppc64
SummarySmall and fast POSIX-compliant shell
DescriptionDASH is a POSIX-compliant implementation of /bin/sh that aims to be as small as possible. It does this without sacrificing speed where possible. In fact, it is significantly faster than bash (the GNU Bourne-Again SHell) for most tasks.
Build Time2009-07-25 07:09:50 GMT
Size73,428
4dc2c5d5a779a0b5579bdfe3d5df36e4
LicenseBSD
Buildrootdist-f12-build-517661-79907
Provides
dash = 0.5.5.1-3.fc12
dash(ppc-64) = 0.5.5.1-3.fc12
Obsoletes No Obsoletes
Conflicts No Conflicts
Requires
libc.so.6()(64bit)
libc.so.6(GLIBC_2.11)(64bit)
libc.so.6(GLIBC_2.3)(64bit)
libc.so.6(GLIBC_2.3.4)(64bit)
libc.so.6(GLIBC_2.4)(64bit)
rpmlib(CompressedFileNames) <= 3.0.4-1
rpmlib(FileDigests) <= 4.6.0-1
rpmlib(PayloadFilesHavePrefix) <= 4.0-1
rpmlib(PayloadIsXz) <= 5.2-1
rtld(GNU_HASH)
Recommends No Recommends
Suggests No Suggests
Supplements No Supplements
Enhances No Enhances
Files
1 through 2 of 2
Name ascending sort Size
/bin/dash144,248
/usr/share/man/man1/dash.1.gz21,061
Component of
Page:
1 through 50 of 3285 >>>
Buildroot descending sort Created State
dist-f12-build-933517-138468 2010-11-30 13:18:05 expired
dist-f12-build-933165-138404 2010-11-29 22:56:23 expired
dist-f12-build-931473-137968 2010-11-25 21:02:17 expired
dist-f12-build-931143-137915 2010-11-25 12:53:26 expired
dist-f12-build-930320-137672 2010-11-24 09:28:56 expired
dist-f12-build-929823-137565 2010-11-23 15:23:48 expired
dist-f12-build-928810-137331 2010-11-22 11:27:09 expired
dist-f12-build-928423-137331 2010-11-21 18:57:38 expired
dist-f12-build-927840-137141 2010-11-19 19:56:00 expired
dist-f12-build-926991-136967 2010-11-18 15:58:04 expired
dist-f12-build-926732-136880 2010-11-18 10:49:08 expired
dist-f12-build-925828-136748 2010-11-16 14:57:24 expired
dist-f12-build-925164-136620 2010-11-15 15:58:09 expired
dist-f12-build-923774-136167 2010-11-12 10:18:05 expired
dist-f12-build-923248-136134 2010-11-11 13:21:48 expired
dist-f12-build-922793-136007 2010-11-10 16:35:21 expired
dist-f12-build-921749-135809 2010-11-09 03:44:42 expired
dist-f12-build-920323-135499 2010-11-07 13:56:51 expired
dist-f12-build-920305-135499 2010-11-07 13:22:46 expired
dist-f12-build-918177-135146 2010-11-04 16:28:52 expired
dist-f12-build-917793-135146 2010-11-03 22:40:22 expired
dist-f12-build-917657-135146 2010-11-03 18:19:34 expired
dist-f12-build-917479-135102 2010-11-03 15:55:15 expired
dist-f12-build-917325-135102 2010-11-03 13:51:52 expired
dist-f12-build-915679-134846 2010-11-01 13:38:34 expired
dist-f12-build-915256-134765 2010-10-31 19:20:34 expired
dist-f12-build-915135-134711 2010-10-31 13:56:19 expired
dist-f12-build-915113-134711 2010-10-31 13:34:44 expired
dist-f12-build-914986-134711 2010-10-31 05:16:05 expired
dist-f12-build-914947-134711 2010-10-31 04:51:12 expired
dist-f12-build-914733-134684 2010-10-30 19:02:55 expired
dist-f12-build-913421-134435 2010-10-28 00:14:36 expired
dist-f12-build-913292-134408 2010-10-27 22:19:30 expired
dist-f12-build-913137-134284 2010-10-27 17:32:06 expired
dist-f12-build-911270-133964 2010-10-25 11:16:19 expired
dist-f12-build-910936-133964 2010-10-24 10:22:02 expired
dist-f12-build-910510-133953 2010-10-22 19:41:14 expired
dist-f12-build-910499-133953 2010-10-22 19:36:45 expired
dist-f12-build-910479-133925 2010-10-22 18:55:07 expired
dist-f12-build-910143-133901 2010-10-22 12:03:37 expired
dist-f12-kde-909636-133803 2010-10-21 17:48:10 expired
dist-f12-kde-909609-133803 2010-10-21 17:08:59 expired
dist-f12-build-908218-133540 2010-10-19 11:13:55 expired
dist-f12-build-907982-133481 2010-10-18 20:56:28 expired
dist-f12-build-907566-133335 2010-10-18 10:47:21 expired
dist-f12-build-907123-133335 2010-10-17 05:40:58 expired
dist-f12-build-907114-133335 2010-10-17 05:28:07 expired
dist-f12-build-907074-133280 2010-10-16 22:29:45 expired
dist-f12-build-906365-133165 2010-10-14 20:38:25 expired
dist-f12-build-905550-133001 2010-10-13 15:06:44 expired